Time;durP1;ratioP1;P1;durP2;ratioP2;P2;SDS_P1;SDS_P2;PMS_P1;PMS_P2;Temp;Humidity;BMP_temperature;BMP_pressure;BME280_temperature;BME280_humidity;BME280_pressure;Samples;Min_cycle;Max_cycle;Signal;HPM_P1;HPM_P2
2022/11/22 00:00:26;;;;;;;9.05;4.55;;;;;;;;;;1039311;28;20079;-74
2022/11/22 00:00:57;;;;;;;11.50;4.28;;;;;;;;;;1034736;28;20021;-74
2022/11/22 00:01:28;;;;;;;12.27;5.35;;;;;;;;;;1035123;28;20021;-74
2022/11/22 00:01:59;;;;;;;11.18;5.20;;;;;;;;;;1039265;28;20491;-74
2022/11/22 00:02:30;;;;;;;11.63;5.43;;;;;;;;;;1039671;28;20028;-74
2022/11/22 00:03:01;;;;;;;16.38;5.97;;;;;;;;;;1039372;28;20029;-74
2022/11/22 00:03:31;;;;;;;13.50;5.05;;;;;;;;;;1043150;28;20113;-73
2022/11/22 00:04:02;;;;;;;13.20;6.90;;;;;;;;;;1043426;28;20170;-73
2022/11/22 00:04:33;;;;;;;11.30;5.53;;;;;;;;;;1043665;28;20025;-73
2022/11/22 00:05:04;;;;;;;11.45;6.43;;;;;;;;;;1039194;28;20412;-73
2022/11/22 00:05:35;;;;;;;8.77;5.57;;;;;;;;;;1035492;28;20446;-74
2022/11/22 00:06:06;;;;;;;11.32;5.70;;;;;;;;;;1035165;28;20029;-74
2022/11/22 00:06:36;;;;;;;11.82;6.72;;;;;;;;;;1032730;28;20142;-74
2022/11/22 00:07:07;;;;;;;16.33;5.85;;;;;;;;;;1037389;28;20040;-74
2022/11/22 00:07:38;;;;;;;13.27;6.55;;;;;;;;;;1037238;28;20544;-74
2022/11/22 00:08:09;;;;;;;14.57;6.68;;;;;;;;;;1039298;28;20064;-74
2022/11/22 00:08:39;;;;;;;13.77;6.35;;;;;;;;;;1039453;28;20026;-74
2022/11/22 00:09:10;;;;;;;8.38;4.60;;;;;;;;;;1039117;28;20026;-74
2022/11/22 00:09:41;;;;;;;9.57;5.63;;;;;;;;;;1039461;28;20017;-74
2022/11/22 00:10:13;;;;;;;10.68;6.13;;;;;;;;;;1039370;28;20033;-74
2022/11/22 00:10:44;;;;;;;14.32;5.75;;;;;;;;;;1039492;28;20021;-74
2022/11/22 00:11:15;;;;;;;11.63;6.70;;;;;;;;;;1043280;28;20029;-73
2022/11/22 00:11:45;;;;;;;11.25;5.78;;;;;;;;;;1042911;28;20013;-74
2022/11/22 00:12:16;;;;;;;13.48;6.43;;;;;;;;;;1039631;28;20085;-74
2022/11/22 00:12:47;;;;;;;13.13;6.18;;;;;;;;;;1035324;28;20025;-74
2022/11/22 00:13:21;;;;;;;9.75;5.40;;;;;;;;;;1034689;28;20485;-74
2022/11/22 00:13:51;;;;;;;16.75;5.68;;;;;;;;;;1032279;28;20022;-74
2022/11/22 00:14:22;;;;;;;11.98;5.95;;;;;;;;;;1036716;28;20169;-74
2022/11/22 00:14:53;;;;;;;11.18;5.57;;;;;;;;;;1040418;28;20025;-74
2022/11/22 00:15:24;;;;;;;9.27;4.78;;;;;;;;;;1044290;28;20032;-74
2022/11/22 00:16:03;;;;;;;12.25;6.63;;;;;;;;;;1044186;28;20052;-73
2022/11/22 00:16:34;;;;;;;11.73;5.35;;;;;;;;;;1043302;28;20448;-73
2022/11/22 00:17:05;;;;;;;17.73;9.20;;;;;;;;;;1043969;28;20500;-74
2022/11/22 00:17:35;;;;;;;17.05;8.00;;;;;;;;;;1040121;28;20032;-74
2022/11/22 00:18:06;;;;;;;13.35;8.27;;;;;;;;;;1039931;28;20026;-73
2022/11/22 00:18:37;;;;;;;12.68;5.90;;;;;;;;;;1037347;28;20064;-74
2022/11/22 00:19:08;;;;;;;17.45;8.20;;;;;;;;;;1033586;28;20149;-73
2022/11/22 00:19:39;;;;;;;18.35;7.60;;;;;;;;;;1033274;28;20030;-74
2022/11/22 00:20:10;;;;;;;17.85;9.45;;;;;;;;;;1034282;28;20104;-74
2022/11/22 00:20:41;;;;;;;21.80;10.48;;;;;;;;;;1037246;28;20041;-74
2022/11/22 00:21:12;;;;;;;18.08;7.53;;;;;;;;;;1041059;28;20079;-74
2022/11/22 00:21:45;;;;;;;17.58;7.82;;;;;;;;;;1039717;28;20022;-73
2022/11/22 00:22:16;;;;;;;16.08;8.73;;;;;;;;;;1040328;28;20028;-74
2022/11/22 00:22:53;;;;;;;15.20;8.52;;;;;;;;;;1041588;28;20033;-74
2022/11/22 00:23:23;;;;;;;18.55;9.32;;;;;;;;;;1044206;28;20017;-74
2022/11/22 00:23:55;;;;;;;17.55;9.52;;;;;;;;;;1045012;28;20078;-74
2022/11/22 00:24:26;;;;;;;17.50;10.32;;;;;;;;;;1044972;28;20076;-73
2022/11/22 00:25:00;;;;;;;16.70;9.18;;;;;;;;;;1040042;28;20025;-74
2022/11/22 00:25:30;;;;;;;20.00;11.38;;;;;;;;;;1037695;28;20057;-73
2022/11/22 00:26:01;;;;;;;19.50;9.70;;;;;;;;;;1039230;28;20029;-73
2022/11/22 00:26:32;;;;;;;18.42;9.20;;;;;;;;;;1040822;28;20168;-74
2022/11/22 00:27:02;;;;;;;16.35;8.55;;;;;;;;;;1044786;28;20124;-74
2022/11/22 00:27:33;;;;;;;16.58;9.20;;;;;;;;;;1044501;28;20017;-74
2022/11/22 00:28:04;;;;;;;19.70;9.57;;;;;;;;;;1040462;28;20036;-74
2022/11/22 00:28:34;;;;;;;21.50;11.15;;;;;;;;;;1040841;28;20026;-74
2022/11/22 00:29:06;;;;;;;23.27;12.85;;;;;;;;;;1040475;28;20051;-74
2022/11/22 00:29:39;;;;;;;22.08;13.13;;;;;;;;;;1040950;28;20025;-74
2022/11/22 00:30:10;;;;;;;22.92;12.73;;;;;;;;;;1036364;28;20057;-73
2022/11/22 00:30:41;;;;;;;26.83;14.30;;;;;;;;;;1036429;28;20049;-74
2022/11/22 00:31:12;;;;;;;20.30;11.90;;;;;;;;;;1040088;28;20025;-74
2022/11/22 00:31:42;;;;;;;26.77;14.93;;;;;;;;;;1036085;28;20052;-74
2022/11/22 00:32:13;;;;;;;16.65;9.75;;;;;;;;;;1037960;28;20026;-73
2022/11/22 00:32:44;;;;;;;26.27;11.82;;;;;;;;;;1034514;28;20026;-74
2022/11/22 00:33:15;;;;;;;17.58;9.93;;;;;;;;;;1038296;28;20052;-74
2022/11/22 00:33:47;;;;;;;15.55;9.30;;;;;;;;;;1037834;28;20021;-74
2022/11/22 00:34:20;;;;;;;15.57;8.20;;;;;;;;;;1036750;28;20511;-74
2022/11/22 00:34:51;;;;;;;12.52;7.43;;;;;;;;;;1039819;28;20056;-74
2022/11/22 00:35:22;;;;;;;12.88;8.40;;;;;;;;;;1040890;28;20031;-74
2022/11/22 00:35:53;;;;;;;15.98;9.35;;;;;;;;;;1043924;28;20029;-73
2022/11/22 00:36:24;;;;;;;15.50;8.52;;;;;;;;;;1040007;28;20037;-73
2022/11/22 00:36:55;;;;;;;15.90;9.40;;;;;;;;;;1037856;28;20022;-74
2022/11/22 00:37:26;;;;;;;15.70;9.25;;;;;;;;;;1038016;28;20029;-74
2022/11/22 00:37:57;;;;;;;15.45;7.90;;;;;;;;;;1040900;28;20053;-73
2022/11/22 00:38:28;;;;;;;17.98;8.18;;;;;;;;;;1043766;28;20025;-73
2022/11/22 00:38:59;;;;;;;12.80;7.00;;;;;;;;;;1043833;28;20409;-74
2022/11/22 00:39:30;;;;;;;12.18;6.53;;;;;;;;;;1044105;28;20036;-74
2022/11/22 00:40:01;;;;;;;13.02;6.38;;;;;;;;;;1043737;28;20131;-74
2022/11/22 00:40:32;;;;;;;11.82;6.30;;;;;;;;;;1040395;28;20148;-74
2022/11/22 00:41:03;;;;;;;12.55;6.68;;;;;;;;;;1044577;28;20433;-74
2022/11/22 00:41:34;;;;;;;14.05;6.75;;;;;;;;;;1042207;28;20472;-74
2022/11/22 00:42:04;;;;;;;43.08;17.48;;;;;;;;;;1041055;28;20691;-74
2022/11/22 00:42:35;;;;;;;60.42;24.58;;;;;;;;;;1039482;28;20047;-74
2022/11/22 00:43:06;;;;;;;41.20;17.48;;;;;;;;;;1039849;28;20037;-74
2022/11/22 00:43:36;;;;;;;47.25;19.63;;;;;;;;;;1038030;28;20032;-74
2022/11/22 00:44:07;;;;;;;38.83;16.40;;;;;;;;;;1034376;28;20038;-74
2022/11/22 00:44:38;;;;;;;27.30;10.88;;;;;;;;;;1036103;28;20514;-73
2022/11/22 00:45:10;;;;;;;25.02;10.48;;;;;;;;;;1035362;28;20025;-73
2022/11/22 00:45:41;;;;;;;14.93;7.22;;;;;;;;;;1036199;28;20018;-74
2022/11/22 00:46:11;;;;;;;21.85;8.23;;;;;;;;;;1040255;28;20420;-74
2022/11/22 00:46:42;;;;;;;22.10;9.43;;;;;;;;;;1037935;28;20563;-74
2022/11/22 00:47:13;;;;;;;19.50;8.40;;;;;;;;;;1039140;28;20500;-74
2022/11/22 00:47:44;;;;;;;24.77;8.13;;;;;;;;;;1039996;28;20079;-74
2022/11/22 00:48:14;;;;;;;21.00;9.65;;;;;;;;;;1040014;28;20031;-74
2022/11/22 00:48:45;;;;;;;13.02;5.88;;;;;;;;;;1040109;28;20026;-74
2022/11/22 00:49:16;;;;;;;20.77;7.97;;;;;;;;;;1044086;28;20059;-74
2022/11/22 00:49:47;;;;;;;26.08;12.50;;;;;;;;;;1044087;28;20870;-74
2022/11/22 00:50:19;;;;;;;56.08;23.38;;;;;;;;;;1044559;28;20040;-74
2022/11/22 00:50:49;;;;;;;33.95;14.85;;;;;;;;;;1043836;28;20111;-74
2022/11/22 00:51:20;;;;;;;33.53;14.23;;;;;;;;;;1044403;28;20033;-74
2022/11/22 00:51:51;;;;;;;48.30;18.65;;;;;;;;;;1043910;28;20037;-74
2022/11/22 00:52:22;;;;;;;49.22;18.85;;;;;;;;;;1044114;28;20024;-75
2022/11/22 00:52:53;;;;;;;37.17;14.98;;;;;;;;;;1043728;28;20029;-74
2022/11/22 00:53:23;;;;;;;30.60;11.82;;;;;;;;;;1043948;28;20040;-74
2022/11/22 00:53:54;;;;;;;19.58;9.43;;;;;;;;;;1039660;28;20154;-74
2022/11/22 00:54:25;;;;;;;21.52;9.70;;;;;;;;;;1036063;28;20022;-74
2022/11/22 00:54:57;;;;;;;23.85;9.23;;;;;;;;;;1033804;28;20561;-74
2022/11/22 00:55:27;;;;;;;15.73;6.60;;;;;;;;;;1034067;28;20371;-74
2022/11/22 00:55:58;;;;;;;17.83;8.02;;;;;;;;;;1038892;28;20021;-74
2022/11/22 00:56:30;;;;;;;19.77;8.82;;;;;;;;;;1036971;28;20022;-74
2022/11/22 00:57:02;;;;;;;30.60;10.63;;;;;;;;;;1037390;28;20022;-74
2022/11/22 00:57:32;;;;;;;21.75;9.02;;;;;;;;;;1040051;28;20025;-74
2022/11/22 00:58:03;;;;;;;14.20;8.65;;;;;;;;;;1036237;28;20022;-74
2022/11/22 00:58:34;;;;;;;14.38;8.05;;;;;;;;;;1036929;28;20025;-74
2022/11/22 00:59:05;;;;;;;16.20;7.65;;;;;;;;;;1041239;28;20094;-74
2022/11/22 00:59:36;;;;;;;24.55;7.65;;;;;;;;;;1042295;28;20094;-74
2022/11/22 01:00:09;;;;;;;17.48;8.07;;;;;;;;;;1043867;28;20037;-74
2022/11/22 01:00:40;;;;;;;12.88;7.47;;;;;;;;;;1043964;28;20503;-74
2022/11/22 01:01:11;;;;;;;20.25;8.38;;;;;;;;;;1043949;28;20025;-74
2022/11/22 01:01:41;;;;;;;23.45;9.27;;;;;;;;;;1043599;28;20029;-73
2022/11/22 01:02:13;;;;;;;18.52;8.85;;;;;;;;;;1043907;28;20074;-73
2022/11/22 01:02:43;;;;;;;14.40;8.25;;;;;;;;;;1043951;28;20105;-74
2022/11/22 01:03:14;;;;;;;19.80;11.02;;;;;;;;;;1043777;28;20070;-74
2022/11/22 01:03:45;;;;;;;28.38;9.80;;;;;;;;;;1044266;28;20052;-74
2022/11/22 01:04:17;;;;;;;22.90;9.73;;;;;;;;;;1043967;28;20027;-74
2022/11/22 01:04:47;;;;;;;13.23;6.20;;;;;;;;;;1043935;28;20029;-74
2022/11/22 01:05:19;;;;;;;16.75;8.13;;;;;;;;;;1044156;28;20027;-74
2022/11/22 01:05:50;;;;;;;14.77;6.93;;;;;;;;;;1042797;28;20024;-74
2022/11/22 01:06:22;;;;;;;12.25;5.55;;;;;;;;;;1044261;28;20496;-74
2022/11/22 01:06:52;;;;;;;15.98;7.55;;;;;;;;;;1042622;28;20535;-75
2022/11/22 01:07:23;;;;;;;17.30;6.90;;;;;;;;;;1041006;28;20032;-75
2022/11/22 01:07:54;;;;;;;16.13;7.00;;;;;;;;;;1035881;28;20093;-75
2022/11/22 01:08:25;;;;;;;27.30;9.48;;;;;;;;;;1036329;28;20029;-74
2022/11/22 01:08:56;;;;;;;20.85;8.05;;;;;;;;;;1037742;28;20113;-74
2022/11/22 01:09:27;;;;;;;22.23;9.77;;;;;;;;;;1039513;28;20112;-74
2022/11/22 01:09:58;;;;;;;23.38;8.73;;;;;;;;;;1040187;28;20466;-74
2022/11/22 01:10:29;;;;;;;17.73;8.43;;;;;;;;;;1044194;28;20128;-74
2022/11/22 01:11:02;;;;;;;23.77;9.10;;;;;;;;;;1035657;28;20022;-74
2022/11/22 01:11:33;;;;;;;85.50;29.73;;;;;;;;;;1040195;28;20523;-74
2022/11/22 01:12:04;;;;;;;60.38;23.70;;;;;;;;;;1040454;28;20174;-75
2022/11/22 01:12:34;;;;;;;58.28;20.98;;;;;;;;;;1040586;28;20053;-74
2022/11/22 01:13:05;;;;;;;24.77;13.18;;;;;;;;;;1039569;28;20031;-74
2022/11/22 01:13:36;;;;;;;30.40;12.60;;;;;;;;;;1039925;28;20234;-74
2022/11/22 01:14:07;;;;;;;20.27;9.13;;;;;;;;;;1036284;28;20056;-74
2022/11/22 01:14:38;;;;;;;34.35;12.98;;;;;;;;;;1038169;28;20029;-74
2022/11/22 01:15:08;;;;;;;29.88;12.40;;;;;;;;;;1042560;28;20017;-74
2022/11/22 01:15:40;;;;;;;26.13;11.65;;;;;;;;;;1040493;28;20029;-74
2022/11/22 01:16:11;;;;;;;25.85;11.43;;;;;;;;;;1042820;28;20020;-74
2022/11/22 01:16:41;;;;;;;40.05;15.43;;;;;;;;;;1039597;28;20035;-74
2022/11/22 01:17:12;;;;;;;51.90;19.02;;;;;;;;;;1041722;28;20032;-74
2022/11/22 01:17:43;;;;;;;42.10;17.75;;;;;;;;;;1043621;28;20543;-74
2022/11/22 01:18:13;;;;;;;51.85;18.67;;;;;;;;;;1043714;28;20032;-74
2022/11/22 01:18:44;;;;;;;50.63;23.23;;;;;;;;;;1039826;28;20026;-74
2022/11/22 01:19:15;;;;;;;54.65;19.15;;;;;;;;;;1040141;28;20025;-74
2022/11/22 01:19:46;;;;;;;48.45;18.95;;;;;;;;;;1041902;28;20136;-74
2022/11/22 01:20:17;;;;;;;37.50;15.73;;;;;;;;;;1039940;28;20591;-75
2022/11/22 01:20:47;;;;;;;36.20;16.42;;;;;;;;;;1042016;28;20125;-74
2022/11/22 01:21:18;;;;;;;45.50;16.20;;;;;;;;;;1036549;28;20112;-74
2022/11/22 01:21:49;;;;;;;28.95;12.85;;;;;;;;;;1033378;28;20032;-74
2022/11/22 01:22:20;;;;;;;23.77;10.35;;;;;;;;;;1032648;28;20023;-75
2022/11/22 01:22:51;;;;;;;22.50;9.75;;;;;;;;;;1031201;28;20075;-74
2022/11/22 01:23:21;;;;;;;21.17;8.27;;;;;;;;;;1032655;28;20026;-74
2022/11/22 01:23:53;;;;;;;14.82;8.25;;;;;;;;;;1034429;28;20030;-75
2022/11/22 01:24:24;;;;;;;19.13;8.20;;;;;;;;;;1039616;28;20017;-75
2022/11/22 01:24:55;;;;;;;19.33;9.82;;;;;;;;;;1031846;28;20117;-74
2022/11/22 01:25:25;;;;;;;26.00;10.95;;;;;;;;;;1033414;28;20486;-74
2022/11/22 01:25:56;;;;;;;19.23;7.97;;;;;;;;;;1036871;28;20029;-74
2022/11/22 01:26:27;;;;;;;23.25;8.80;;;;;;;;;;1038231;28;20025;-74
2022/11/22 01:26:58;;;;;;;14.82;6.38;;;;;;;;;;1043089;28;20032;-75
2022/11/22 01:27:28;;;;;;;17.40;7.22;;;;;;;;;;1035582;28;20018;-74
2022/11/22 01:27:59;;;;;;;18.33;9.52;;;;;;;;;;1031161;28;20034;-74
2022/11/22 01:28:30;;;;;;;19.38;8.35;;;;;;;;;;1031171;28;20418;-75
2022/11/22 01:29:01;;;;;;;18.45;8.23;;;;;;;;;;1032703;28;20434;-74
2022/11/22 01:29:32;;;;;;;19.42;10.05;;;;;;;;;;1035989;28;20433;-74
2022/11/22 01:30:04;;;;;;;18.00;7.45;;;;;;;;;;1040458;28;20032;-74
2022/11/22 01:30:35;;;;;;;20.75;7.03;;;;;;;;;;1041589;28;20559;-74
2022/11/22 01:31:05;;;;;;;16.40;7.22;;;;;;;;;;1044486;28;20074;-76
2022/11/22 01:31:36;;;;;;;14.80;7.25;;;;;;;;;;1041539;28;20503;-75
2022/11/22 01:32:07;;;;;;;15.25;6.32;;;;;;;;;;1041488;28;20092;-74
2022/11/22 01:32:37;;;;;;;15.73;7.47;;;;;;;;;;1043924;28;20116;-74
2022/11/22 01:33:08;;;;;;;17.38;8.27;;;;;;;;;;1043329;28;20143;-74
2022/11/22 01:33:39;;;;;;;15.65;6.35;;;;;;;;;;1039682;28;20361;-74
2022/11/22 01:34:10;;;;;;;11.88;6.57;;;;;;;;;;1039434;28;20032;-74
2022/11/22 01:34:42;;;;;;;15.85;8.38;;;;;;;;;;1042391;28;20028;-75
2022/11/22 01:35:14;;;;;;;14.60;6.30;;;;;;;;;;1044258;28;20033;-75
2022/11/22 01:35:46;;;;;;;19.05;7.55;;;;;;;;;;1043446;28;20039;-74
2022/11/22 01:36:17;;;;;;;14.40;6.97;;;;;;;;;;1044062;28;20056;-76
2022/11/22 01:36:48;;;;;;;14.10;6.65;;;;;;;;;;1044206;28;20035;-75
2022/11/22 01:37:20;;;;;;;15.30;7.00;;;;;;;;;;1037519;28;20032;-75
2022/11/22 01:37:50;;;;;;;12.75;5.93;;;;;;;;;;1038443;28;20030;-75
2022/11/22 01:38:24;;;;;;;12.43;5.75;;;;;;;;;;1043017;28;20112;-74
2022/11/22 01:38:55;;;;;;;14.05;5.88;;;;;;;;;;1043151;28;20380;-74
2022/11/22 01:39:26;;;;;;;16.40;6.30;;;;;;;;;;1044955;28;20008;-74
2022/11/22 01:39:57;;;;;;;14.45;6.50;;;;;;;;;;1044338;28;20020;-74
2022/11/22 01:40:28;;;;;;;13.23;6.78;;;;;;;;;;1043414;28;20020;-74
2022/11/22 01:40:59;;;;;;;11.07;5.25;;;;;;;;;;1042668;28;20025;-72
2022/11/22 01:41:29;;;;;;;8.65;4.88;;;;;;;;;;1045250;28;20112;-73
2022/11/22 01:42:03;;;;;;;10.80;4.78;;;;;;;;;;1046962;28;20025;-74
2022/11/22 01:42:47;;;;;;;12.45;5.40;;;;;;;;;;1045862;28;20025;-74
2022/11/22 01:43:19;;;;;;;15.43;7.28;;;;;;;;;;1047410;28;20028;-75
2022/11/22 01:43:50;;;;;;;9.50;5.65;;;;;;;;;;1042864;28;20021;-74
2022/11/22 01:44:25;;;;;;;13.07;6.70;;;;;;;;;;1040179;28;20067;-73
2022/11/22 01:45:16;;;;;;;14.55;6.63;;;;;;;;;;1038200;28;20089;-73
2022/11/22 01:45:49;;;;;;;11.05;6.07;;;;;;;;;;1038441;28;20559;-73
2022/11/22 01:46:19;;;;;;;10.40;6.35;;;;;;;;;;1043867;28;20028;-73
2022/11/22 01:46:52;;;;;;;12.95;6.38;;;;;;;;;;1044497;28;20465;-74
2022/11/22 01:47:24;;;;;;;10.65;5.90;;;;;;;;;;1044428;28;20017;-75
2022/11/22 01:47:57;;;;;;;16.90;6.18;;;;;;;;;;1041465;28;20033;-73
2022/11/22 01:48:42;;;;;;;13.50;6.38;;;;;;;;;;1039430;28;20053;-73
2022/11/22 01:49:31;;;;;;;15.48;6.75;;;;;;;;;;1039658;28;20021;-73
2022/11/22 01:50:04;;;;;;;11.95;6.00;;;;;;;;;;1041946;28;20013;-72
2022/11/22 01:50:36;;;;;;;11.05;5.88;;;;;;;;;;1041248;28;20033;-73
2022/11/22 01:51:17;;;;;;;16.77;6.32;;;;;;;;;;1044792;28;20056;-73
2022/11/22 01:51:50;;;;;;;12.30;6.22;;;;;;;;;;1043990;28;20480;-73
2022/11/22 01:52:23;;;;;;;16.40;6.45;;;;;;;;;;1039290;28;20101;-74
2022/11/22 01:52:55;;;;;;;8.80;5.35;;;;;;;;;;1039880;28;20610;-73
2022/11/22 01:53:29;;;;;;;11.55;6.43;;;;;;;;;;1039648;28;20796;-74
2022/11/22 01:54:01;;;;;;;11.25;5.65;;;;;;;;;;1040944;28;20029;-73
2022/11/22 01:54:34;;;;;;;11.80;6.60;;;;;;;;;;1042527;28;20028;-74
2022/11/22 01:55:10;;;;;;;13.43;5.90;;;;;;;;;;1043637;28;20028;-74
2022/11/22 01:55:41;;;;;;;17.13;7.00;;;;;;;;;;1040327;28;20071;-73
2022/11/22 01:56:13;;;;;;;16.00;7.18;;;;;;;;;;1039556;28;20570;-75
2022/11/22 01:56:46;;;;;;;11.02;5.40;;;;;;;;;;1039722;28;20142;-74
2022/11/22 01:57:19;;;;;;;10.02;6.30;;;;;;;;;;1043459;28;20036;-74
2022/11/22 01:57:51;;;;;;;13.00;6.78;;;;;;;;;;1042246;28;20104;-74
2022/11/22 01:58:22;;;;;;;16.48;6.50;;;;;;;;;;1043369;28;20043;-74
2022/11/22 01:58:55;;;;;;;13.68;6.00;;;;;;;;;;1039626;28;20112;-75
2022/11/22 01:59:28;;;;;;;10.80;6.10;;;;;;;;;;1040194;28;20021;-74
2022/11/22 02:00:09;;;;;;;15.57;6.47;;;;;;;;;;1042753;28;20441;-74
2022/11/22 02:00:40;;;;;;;10.80;6.00;;;;;;;;;;1040644;28;20449;-74
2022/11/22 02:01:11;;;;;;;11.82;5.47;;;;;;;;;;1043517;28;20169;-74
2022/11/22 02:01:42;;;;;;;12.07;5.65;;;;;;;;;;1044322;28;20047;-74
2022/11/22 02:02:13;;;;;;;15.45;6.80;;;;;;;;;;1043623;28;20387;-75
2022/11/22 02:02:45;;;;;;;10.10;4.60;;;;;;;;;;1043621;28;20103;-75
2022/11/22 02:03:17;;;;;;;13.05;7.22;;;;;;;;;;1042945;28;20024;-74
2022/11/22 02:03:49;;;;;;;16.23;7.00;;;;;;;;;;1037550;28;20029;-76
2022/11/22 02:04:22;;;;;;;11.63;5.40;;;;;;;;;;1038872;28;20075;-74
2022/11/22 02:04:55;;;;;;;14.55;5.90;;;;;;;;;;1035702;28;20425;-74
2022/11/22 02:05:28;;;;;;;15.98;5.53;;;;;;;;;;1037781;28;20077;-74
2022/11/22 02:06:00;;;;;;;14.35;6.07;;;;;;;;;;1043518;28;20025;-75
2022/11/22 02:06:35;;;;;;;12.70;6.38;;;;;;;;;;1044330;28;20028;-74
2022/11/22 02:07:26;;;;;;;11.68;5.57;;;;;;;;;;1044074;28;20090;-75
2022/11/22 02:08:15;;;;;;;10.20;4.82;;;;;;;;;;1043939;28;20025;-73
2022/11/22 02:08:52;;;;;;;11.93;5.40;;;;;;;;;;1044227;28;20166;-74
2022/11/22 02:09:22;;;;;;;16.15;6.30;;;;;;;;;;1044135;28;20305;-75
2022/11/22 02:09:53;;;;;;;14.18;5.80;;;;;;;;;;1043733;28;20162;-74
2022/11/22 02:10:26;;;;;;;9.98;4.95;;;;;;;;;;1043111;28;20032;-74
2022/11/22 02:10:58;;;;;;;9.32;5.13;;;;;;;;;;1043169;28;20025;-75
2022/11/22 02:11:29;;;;;;;16.98;7.07;;;;;;;;;;1041112;28;20060;-74
2022/11/22 02:12:01;;;;;;;10.55;5.05;;;;;;;;;;1043848;28;20017;-76
2022/11/22 02:12:33;;;;;;;10.75;5.22;;;;;;;;;;1039220;28;20140;-74
2022/11/22 02:13:05;;;;;;;13.85;5.25;;;;;;;;;;1039883;28;20504;-75
2022/11/22 02:13:38;;;;;;;11.70;5.57;;;;;;;;;;1038347;28;20094;-76
2022/11/22 02:14:09;;;;;;;14.48;6.32;;;;;;;;;;1043261;28;20037;-75
2022/11/22 02:14:40;;;;;;;13.00;5.97;;;;;;;;;;1040019;28;20022;-75
2022/11/22 02:15:12;;;;;;;12.25;4.88;;;;;;;;;;1039693;28;20558;-75
2022/11/22 02:15:43;;;;;;;11.95;6.55;;;;;;;;;;1037091;28;20030;-74
2022/11/22 02:16:15;;;;;;;14.20;7.50;;;;;;;;;;1034493;28;20513;-75
2022/11/22 02:16:47;;;;;;;11.20;5.97;;;;;;;;;;1035597;28;20032;-75
2022/11/22 02:17:18;;;;;;;13.73;5.60;;;;;;;;;;1040117;28;20030;-75
2022/11/22 02:17:49;;;;;;;8.35;4.32;;;;;;;;;;1043026;28;20032;-75
2022/11/22 02:18:20;;;;;;;14.98;6.30;;;;;;;;;;1042395;28;20075;-75
2022/11/22 02:18:51;;;;;;;19.60;7.53;;;;;;;;;;1044058;28;20468;-74
2022/11/22 02:19:24;;;;;;;15.68;5.80;;;;;;;;;;1044652;28;20025;-76
2022/11/22 02:19:55;;;;;;;12.27;4.75;;;;;;;;;;1043119;28;20062;-75
2022/11/22 02:20:25;;;;;;;12.88;5.72;;;;;;;;;;1043376;28;20442;-75
2022/11/22 02:20:57;;;;;;;15.60;5.97;;;;;;;;;;1042890;28;20025;-76
2022/11/22 02:21:28;;;;;;;17.88;7.10;;;;;;;;;;1042846;28;20028;-75
2022/11/22 02:22:04;;;;;;;10.82;5.70;;;;;;;;;;1043497;28;20025;-75
2022/11/22 02:22:38;;;;;;;18.70;5.95;;;;;;;;;;1043460;28;20083;-75
2022/11/22 02:23:18;;;;;;;16.35;5.82;;;;;;;;;;1042311;28;20068;-74
2022/11/22 02:23:54;;;;;;;10.80;5.07;;;;;;;;;;1043610;28;20036;-76
2022/11/22 02:24:30;;;;;;;17.98;5.93;;;;;;;;;;1042031;28;20076;-75
2022/11/22 02:25:06;;;;;;;11.00;5.45;;;;;;;;;;1041261;28;20060;-75
2022/11/22 02:25:41;;;;;;;17.17;7.25;;;;;;;;;;1042937;28;20108;-75
2022/11/22 02:26:12;;;;;;;23.85;6.68;;;;;;;;;;1039473;28;20029;-75
2022/11/22 02:26:43;;;;;;;14.27;7.38;;;;;;;;;;1038995;28;20036;-75
2022/11/22 02:27:14;;;;;;;15.45;7.53;;;;;;;;;;1034530;28;20029;-76
2022/11/22 02:27:44;;;;;;;30.20;10.18;;;;;;;;;;1034282;28;20575;-75
2022/11/22 02:28:15;;;;;;;16.55;7.03;;;;;;;;;;1036135;28;20026;-75
2022/11/22 02:28:46;;;;;;;15.20;6.68;;;;;;;;;;1037577;28;20063;-75
2022/11/22 02:29:17;;;;;;;19.98;6.95;;;;;;;;;;1042331;28;20029;-75
2022/11/22 02:29:48;;;;;;;12.65;7.78;;;;;;;;;;1038895;28;20420;-77
2022/11/22 02:30:19;;;;;;;15.95;5.68;;;;;;;;;;1042953;28;20025;-76
2022/11/22 02:30:50;;;;;;;13.60;6.20;;;;;;;;;;1042615;28;20029;-74
2022/11/22 02:31:41;;;;;;;15.45;5.82;;;;;;;;;;1042728;28;20409;-74
2022/11/22 02:32:12;;;;;;;14.45;6.28;;;;;;;;;;1042456;28;20441;-75
2022/11/22 02:32:42;;;;;;;11.70;5.18;;;;;;;;;;1042693;28;20028;-74
2022/11/22 02:33:13;;;;;;;16.80;7.28;;;;;;;;;;1042632;28;20618;-75
2022/11/22 02:33:44;;;;;;;20.88;9.18;;;;;;;;;;1042577;28;20029;-74
2022/11/22 02:34:14;;;;;;;15.85;6.05;;;;;;;;;;1043241;28;20041;-74
2022/11/22 02:34:46;;;;;;;22.42;7.10;;;;;;;;;;1040778;28;20009;-75
2022/11/22 02:35:35;;;;;;;14.30;7.65;;;;;;;;;;1040193;28;20037;-76
2022/11/22 02:36:05;;;;;;;12.85;6.35;;;;;;;;;;1038642;28;20029;-73
2022/11/22 02:36:44;;;;;;;14.40;7.15;;;;;;;;;;1042130;28;20017;-75
2022/11/22 02:37:17;;;;;;;14.77;6.47;;;;;;;;;;1037502;28;20025;-76
2022/11/22 02:38:17;;;;;;;15.70;7.35;;;;;;;;;;1037183;28;20034;-74
2022/11/22 02:38:48;;;;;;;9.88;4.57;;;;;;;;;;1025667;28;20035;-76
2022/11/22 02:39:24;;;;;;;13.55;5.82;;;;;;;;;;1034196;28;20038;-76
2022/11/22 02:40:06;;;;;;;15.40;6.80;;;;;;;;;;1034091;28;20651;-75
2022/11/22 02:40:39;;;;;;;11.68;4.78;;;;;;;;;;1035495;28;20425;-76
2022/11/22 02:41:11;;;;;;;24.98;6.25;;;;;;;;;;1031964;28;20022;-77
2022/11/22 02:41:42;;;;;;;12.02;5.35;;;;;;;;;;1037871;28;20053;-76
2022/11/22 02:42:13;;;;;;;10.88;5.40;;;;;;;;;;1039513;28;20021;-76
2022/11/22 02:42:47;;;;;;;9.70;4.65;;;;;;;;;;1036900;28;20025;-76
2022/11/22 02:43:21;;;;;;;10.93;5.38;;;;;;;;;;1041467;28;20112;-75
2022/11/22 02:43:52;;;;;;;11.75;5.38;;;;;;;;;;1041646;28;20029;-75
2022/11/22 02:44:23;;;;;;;21.98;6.13;;;;;;;;;;1042322;28;20025;-75
2022/11/22 02:44:54;;;;;;;18.48;8.50;;;;;;;;;;1042297;28;20032;-75
2022/11/22 02:45:24;;;;;;;18.92;8.30;;;;;;;;;;1042084;28;20029;-75
2022/11/22 02:45:55;;;;;;;11.98;6.43;;;;;;;;;;1040812;28;20023;-75
2022/11/22 02:46:26;;;;;;;13.52;6.97;;;;;;;;;;1040036;28;20033;-76
2022/11/22 02:46:57;;;;;;;9.77;6.22;;;;;;;;;;1041818;28;20119;-76
2022/11/22 02:47:28;;;;;;;15.75;6.63;;;;;;;;;;1043804;28;20039;-76
2022/11/22 02:48:05;;;;;;;12.07;6.55;;;;;;;;;;1044870;28;20028;-75
2022/11/22 02:48:45;;;;;;;12.38;6.57;;;;;;;;;;1040074;28;20044;-77
2022/11/22 02:49:17;;;;;;;15.00;7.60;;;;;;;;;;1036076;28;20569;-76
2022/11/22 02:49:48;;;;;;;34.63;10.30;;;;;;;;;;1032639;28;20041;-76
2022/11/22 02:50:18;;;;;;;13.68;6.78;;;;;;;;;;1031440;28;20235;-76
2022/11/22 02:50:49;;;;;;;14.73;5.95;;;;;;;;;;1030970;28;21148;-76
2022/11/22 02:51:20;;;;;;;13.90;7.05;;;;;;;;;;1032070;28;20371;-76
2022/11/22 02:51:51;;;;;;;13.52;7.07;;;;;;;;;;1033426;28;20029;-76
2022/11/22 02:52:22;;;;;;;21.25;9.52;;;;;;;;;;1037890;28;20033;-76
2022/11/22 02:52:53;;;;;;;16.40;6.35;;;;;;;;;;1036648;28;20031;-77
2022/11/22 02:53:25;;;;;;;12.00;7.05;;;;;;;;;;1041075;28;20516;-75
2022/11/22 02:53:55;;;;;;;24.90;7.25;;;;;;;;;;1040748;28;20035;-74
2022/11/22 02:54:26;;;;;;;24.20;7.97;;;;;;;;;;1039640;28;20029;-74
2022/11/22 02:54:57;;;;;;;13.15;4.95;;;;;;;;;;1042331;28;20036;-74
2022/11/22 02:55:28;;;;;;;14.98;7.38;;;;;;;;;;1036012;28;20088;-74
2022/11/22 02:55:59;;;;;;;32.10;10.60;;;;;;;;;;1034926;28;20693;-75
2022/11/22 02:56:29;;;;;;;15.07;8.48;;;;;;;;;;1037133;28;21295;-75
2022/11/22 02:57:01;;;;;;;27.90;8.88;;;;;;;;;;1032158;28;20030;-74
2022/11/22 02:57:32;;;;;;;20.65;6.85;;;;;;;;;;1034044;28;20064;-76
2022/11/22 02:58:04;;;;;;;16.15;7.68;;;;;;;;;;1037941;28;20056;-74
2022/11/22 02:58:35;;;;;;;17.23;7.15;;;;;;;;;;1040904;28;20440;-75
2022/11/22 02:59:06;;;;;;;13.80;6.93;;;;;;;;;;1042786;28;20025;-76
2022/11/22 02:59:37;;;;;;;14.77;6.53;;;;;;;;;;1043087;28;20021;-75
2022/11/22 03:00:08;;;;;;;9.10;4.82;;;;;;;;;;1042530;28;20055;-76
2022/11/22 03:00:39;;;;;;;9.77;5.53;;;;;;;;;;1038440;28;20116;-76
2022/11/22 03:01:11;;;;;;;12.85;6.78;;;;;;;;;;1038995;28;20606;-76
2022/11/22 03:01:42;;;;;;;20.38;7.60;;;;;;;;;;1037475;28;20367;-76
2022/11/22 03:02:13;;;;;;;15.80;5.95;;;;;;;;;;1036168;28;20112;-77
2022/11/22 03:02:44;;;;;;;22.83;7.90;;;;;;;;;;1038603;28;20029;-76
2022/11/22 03:03:14;;;;;;;13.52;7.97;;;;;;;;;;1036635;28;20017;-76
2022/11/22 03:03:45;;;;;;;17.60;8.43;;;;;;;;;;1033452;28;20030;-75
2022/11/22 03:04:26;;;;;;;18.95;9.80;;;;;;;;;;1032190;28;20030;-77
2022/11/22 03:04:57;;;;;;;24.52;9.20;;;;;;;;;;1032962;28;20049;-76
2022/11/22 03:05:29;;;;;;;22.05;7.82;;;;;;;;;;1035581;28;20026;-78
2022/11/22 03:06:01;;;;;;;18.58;5.97;;;;;;;;;;1033040;28;20518;-75
2022/11/22 03:06:31;;;;;;;23.48;10.05;;;;;;;;;;1034097;28;20397;-74
2022/11/22 03:07:03;;;;;;;23.80;9.02;;;;;;;;;;1035463;28;20029;-74
2022/11/22 03:07:33;;;;;;;18.80;9.93;;;;;;;;;;1033712;28;20433;-76
2022/11/22 03:08:05;;;;;;;14.57;7.20;;;;;;;;;;1036675;28;20101;-75
2022/11/22 03:08:37;;;;;;;19.17;9.23;;;;;;;;;;1042072;28;20487;-78
2022/11/22 03:09:08;;;;;;;15.98;8.73;;;;;;;;;;1040856;28;20086;-76